sensor_id;sensor_type;location;lat;lon;timestamp;P1;durP1;ratioP1;P2;durP2;ratioP2
71821;SDS011;64096;52.548;13.406;2023-11-22T06:02:08;9.25;;;5.38;;
71821;SDS011;64096;52.548;13.406;2023-11-22T06:04:34;9.10;;;5.55;;
71821;SDS011;64096;52.548;13.406;2023-11-22T06:07:00;8.23;;;5.78;;
71821;SDS011;64096;52.548;13.406;2023-11-22T06:09:26;10.95;;;6.88;;
71821;SDS011;64096;52.548;13.406;2023-11-22T06:11:52;10.98;;;6.53;;
71821;SDS011;64096;52.548;13.406;2023-11-22T06:14:19;9.57;;;5.88;;
71821;SDS011;64096;52.548;13.406;2023-11-22T06:16:45;9.02;;;5.72;;
71821;SDS011;64096;52.548;13.406;2023-11-22T06:19:12;8.13;;;5.18;;
71821;SDS011;64096;52.548;13.406;2023-11-22T06:21:38;9.70;;;5.85;;
71821;SDS011;64096;52.548;13.406;2023-11-22T06:24:04;9.02;;;5.80;;
71821;SDS011;64096;52.548;13.406;2023-11-22T06:26:33;8.27;;;5.40;;
71821;SDS011;64096;52.548;13.406;2023-11-22T06:28:59;10.20;;;6.35;;
71821;SDS011;64096;52.548;13.406;2023-11-22T06:31:25;9.70;;;5.68;;
71821;SDS011;64096;52.548;13.406;2023-11-22T06:33:52;11.02;;;6.47;;
71821;SDS011;64096;52.548;13.406;2023-11-22T06:36:18;8.88;;;5.75;;
71821;SDS011;64096;52.548;13.406;2023-11-22T06:38:44;9.65;;;5.75;;
71821;SDS011;64096;52.548;13.406;2023-11-22T06:41:11;9.52;;;5.97;;
71821;SDS011;64096;52.548;13.406;2023-11-22T06:43:37;8.10;;;5.90;;
71821;SDS011;64096;52.548;13.406;2023-11-22T06:46:03;9.57;;;5.90;;
71821;SDS011;64096;52.548;13.406;2023-11-22T06:48:31;9.95;;;5.45;;
71821;SDS011;64096;52.548;13.406;2023-11-22T06:50:58;9.70;;;6.13;;
71821;SDS011;64096;52.548;13.406;2023-11-22T06:53:24;9.40;;;6.07;;
71821;SDS011;64096;52.548;13.406;2023-11-22T06:55:50;9.45;;;5.70;;
71821;SDS011;64096;52.548;13.406;2023-11-22T06:58:17;10.25;;;6.18;;
71821;SDS011;64096;52.548;13.406;2023-11-22T07:00:44;14.57;;;8.50;;
71821;SDS011;64096;52.548;13.406;2023-11-22T07:03:10;14.65;;;9.45;;
71821;SDS011;64096;52.548;13.406;2023-11-22T07:05:37;11.07;;;7.18;;
71821;SDS011;64096;52.548;13.406;2023-11-22T07:08:03;12.52;;;6.82;;
71821;SDS011;64096;52.548;13.406;2023-11-22T07:10:29;9.35;;;6.82;;
71821;SDS011;64096;52.548;13.406;2023-11-22T07:12:59;11.80;;;7.03;;
71821;SDS011;64096;52.548;13.406;2023-11-22T07:15:28;10.10;;;5.68;;
71821;SDS011;64096;52.548;13.406;2023-11-22T07:17:55;12.27;;;6.82;;
71821;SDS011;64096;52.548;13.406;2023-11-22T07:20:21;9.05;;;5.75;;
71821;SDS011;64096;52.548;13.406;2023-11-22T07:22:48;11.15;;;6.80;;
71821;SDS011;64096;52.548;13.406;2023-11-22T07:25:20;9.57;;;6.40;;
71821;SDS011;64096;52.548;13.406;2023-11-22T07:27:50;10.70;;;6.93;;
71821;SDS011;64096;52.548;13.406;2023-11-22T07:30:16;9.20;;;6.00;;
71821;SDS011;64096;52.548;13.406;2023-11-22T07:32:47;9.77;;;6.05;;
71821;SDS011;64096;52.548;13.406;2023-11-22T07:35:13;12.25;;;6.93;;
71821;SDS011;64096;52.548;13.406;2023-11-22T07:37:40;11.52;;;6.45;;
71821;SDS011;64096;52.548;13.406;2023-11-22T07:40:09;10.20;;;6.63;;
71821;SDS011;64096;52.548;13.406;2023-11-22T07:42:38;12.48;;;7.43;;
71821;SDS011;64096;52.548;13.406;2023-11-22T07:45:04;9.75;;;6.63;;
71821;SDS011;64096;52.548;13.406;2023-11-22T07:47:30;10.55;;;7.10;;
71821;SDS011;64096;52.548;13.406;2023-11-22T07:49:56;10.38;;;6.78;;
71821;SDS011;64096;52.548;13.406;2023-11-22T07:52:23;12.25;;;7.18;;
71821;SDS011;64096;52.548;13.406;2023-11-22T07:54:56;10.32;;;6.88;;
71821;SDS011;64096;52.548;13.406;2023-11-22T07:57:22;9.02;;;6.47;;
71821;SDS011;64096;52.548;13.406;2023-11-22T07:59:49;11.45;;;6.85;;
71821;SDS011;64096;52.548;13.406;2023-11-22T08:02:15;12.90;;;7.88;;
71821;SDS011;64096;52.548;13.406;2023-11-22T08:04:44;10.27;;;7.05;;
71821;SDS011;64096;52.548;13.406;2023-11-22T08:07:10;12.93;;;7.65;;
71821;SDS011;64096;52.548;13.406;2023-11-22T08:09:39;11.80;;;7.45;;
71821;SDS011;64096;52.548;13.406;2023-11-22T08:12:06;12.95;;;7.82;;
71821;SDS011;64096;52.548;13.406;2023-11-22T08:14:32;14.93;;;9.35;;
71821;SDS011;64096;52.548;13.406;2023-11-22T08:16:58;12.35;;;7.85;;
71821;SDS011;64096;52.548;13.406;2023-11-22T08:19:24;12.02;;;8.38;;
71821;SDS011;64096;52.548;13.406;2023-11-22T08:21:52;13.02;;;8.65;;
71821;SDS011;64096;52.548;13.406;2023-11-22T08:24:19;14.02;;;8.10;;
71821;SDS011;64096;52.548;13.406;2023-11-22T08:26:45;12.02;;;8.05;;
71821;SDS011;64096;52.548;13.406;2023-11-22T08:29:11;12.25;;;8.00;;
71821;SDS011;64096;52.548;13.406;2023-11-22T08:31:37;13.40;;;7.93;;
71821;SDS011;64096;52.548;13.406;2023-11-22T08:34:03;12.13;;;8.10;;
71821;SDS011;64096;52.548;13.406;2023-11-22T08:36:32;12.73;;;7.80;;
71821;SDS011;64096;52.548;13.406;2023-11-22T08:38:59;12.27;;;8.43;;
71821;SDS011;64096;52.548;13.406;2023-11-22T08:41:26;11.43;;;7.90;;
71821;SDS011;64096;52.548;13.406;2023-11-22T08:43:52;11.18;;;7.10;;
71821;SDS011;64096;52.548;13.406;2023-11-22T08:46:18;10.20;;;7.50;;
71821;SDS011;64096;52.548;13.406;2023-11-22T08:48:44;10.95;;;7.15;;
71821;SDS011;64096;52.548;13.406;2023-11-22T08:51:10;9.25;;;6.65;;
71821;SDS011;64096;52.548;13.406;2023-11-22T08:53:38;12.13;;;6.95;;
71821;SDS011;64096;52.548;13.406;2023-11-22T08:56:05;9.85;;;6.47;;
71821;SDS011;64096;52.548;13.406;2023-11-22T08:58:34;12.32;;;6.80;;
71821;SDS011;64096;52.548;13.406;2023-11-22T09:01:00;9.68;;;6.72;;
71821;SDS011;64096;52.548;13.406;2023-11-22T09:03:28;11.38;;;6.97;;
71821;SDS011;64096;52.548;13.406;2023-11-22T09:05:54;10.63;;;6.97;;
71821;SDS011;64096;52.548;13.406;2023-11-22T09:08:20;10.48;;;7.18;;
71821;SDS011;64096;52.548;13.406;2023-11-22T09:10:46;10.77;;;6.75;;
71821;SDS011;64096;52.548;13.406;2023-11-22T09:13:13;10.48;;;7.20;;
71821;SDS011;64096;52.548;13.406;2023-11-22T09:15:41;10.45;;;6.93;;
71821;SDS011;64096;52.548;13.406;2023-11-22T09:18:09;9.80;;;6.68;;
71821;SDS011;64096;52.548;13.406;2023-11-22T09:20:37;11.80;;;6.85;;
71821;SDS011;64096;52.548;13.406;2023-11-22T09:23:03;11.80;;;7.63;;
71821;SDS011;64096;52.548;13.406;2023-11-22T09:25:30;10.60;;;6.85;;
71821;SDS011;64096;52.548;13.406;2023-11-22T09:27:58;11.77;;;7.00;;
71821;SDS011;64096;52.548;13.406;2023-11-22T09:30:25;9.90;;;6.95;;
71821;SDS011;64096;52.548;13.406;2023-11-22T09:35:23;9.63;;;6.78;;
71821;SDS011;64096;52.548;13.406;2023-11-22T09:37:50;10.23;;;6.63;;
71821;SDS011;64096;52.548;13.406;2023-11-22T09:40:17;11.07;;;6.78;;
71821;SDS011;64096;52.548;13.406;2023-11-22T09:42:44;12.68;;;7.80;;
71821;SDS011;64096;52.548;13.406;2023-11-22T09:45:19;9.38;;;5.97;;
71821;SDS011;64096;52.548;13.406;2023-11-22T09:47:46;9.23;;;5.85;;
71821;SDS011;64096;52.548;13.406;2023-11-22T09:52:59;10.00;;;6.25;;
71821;SDS011;64096;52.548;13.406;2023-11-22T09:55:27;8.80;;;5.93;;
71821;SDS011;64096;52.548;13.406;2023-11-22T09:57:54;11.00;;;7.28;;
71821;SDS011;64096;52.548;13.406;2023-11-22T10:00:20;8.98;;;6.10;;
71821;SDS011;64096;52.548;13.406;2023-11-22T10:02:47;9.55;;;5.68;;
71821;SDS011;64096;52.548;13.406;2023-11-22T10:05:13;14.48;;;9.30;;
71821;SDS011;64096;52.548;13.406;2023-11-22T10:07:39;10.55;;;6.55;;
71821;SDS011;64096;52.548;13.406;2023-11-22T10:10:05;9.13;;;5.72;;
71821;SDS011;64096;52.548;13.406;2023-11-22T10:12:32;8.63;;;5.53;;
71821;SDS011;64096;52.548;13.406;2023-11-22T10:15:13;9.32;;;5.75;;
71821;SDS011;64096;52.548;13.406;2023-11-22T10:17:41;8.88;;;5.88;;
71821;SDS011;64096;52.548;13.406;2023-11-22T10:20:12;8.32;;;5.30;;
71821;SDS011;64096;52.548;13.406;2023-11-22T10:22:45;8.32;;;5.47;;
71821;SDS011;64096;52.548;13.406;2023-11-22T10:25:13;7.55;;;4.97;;
71821;SDS011;64096;52.548;13.406;2023-11-22T10:27:40;8.48;;;5.88;;
71821;SDS011;64096;52.548;13.406;2023-11-22T10:30:07;7.90;;;5.40;;
71821;SDS011;64096;52.548;13.406;2023-11-22T10:32:36;8.98;;;5.32;;
71821;SDS011;64096;52.548;13.406;2023-11-22T10:35:04;7.78;;;5.18;;
71821;SDS011;64096;52.548;13.406;2023-11-22T10:37:32;8.05;;;5.72;;
71821;SDS011;64096;52.548;13.406;2023-11-22T10:39:59;10.35;;;5.65;;
71821;SDS011;64096;52.548;13.406;2023-11-22T10:42:25;8.45;;;5.50;;
71821;SDS011;64096;52.548;13.406;2023-11-22T10:44:56;8.52;;;5.43;;
71821;SDS011;64096;52.548;13.406;2023-11-22T10:47:22;8.65;;;5.75;;
71821;SDS011;64096;52.548;13.406;2023-11-22T10:49:48;7.80;;;5.00;;
71821;SDS011;64096;52.548;13.406;2023-11-22T10:52:14;8.43;;;5.55;;
71821;SDS011;64096;52.548;13.406;2023-11-22T10:54:44;7.38;;;4.95;;
71821;SDS011;64096;52.548;13.406;2023-11-22T10:57:19;7.90;;;5.13;;
71821;SDS011;64096;52.548;13.406;2023-11-22T10:59:45;8.73;;;5.38;;
71821;SDS011;64096;52.548;13.406;2023-11-22T11:02:15;8.35;;;5.72;;
71821;SDS011;64096;52.548;13.406;2023-11-22T11:04:55;7.93;;;5.30;;
71821;SDS011;64096;52.548;13.406;2023-11-22T11:07:24;8.20;;;5.55;;
71821;SDS011;64096;52.548;13.406;2023-11-22T11:09:55;9.27;;;5.32;;
71821;SDS011;64096;52.548;13.406;2023-11-22T11:12:22;8.95;;;5.75;;
71821;SDS011;64096;52.548;13.406;2023-11-22T11:14:49;8.57;;;5.70;;
71821;SDS011;64096;52.548;13.406;2023-11-22T11:17:16;12.48;;;7.78;;
71821;SDS011;64096;52.548;13.406;2023-11-22T11:19:43;9.55;;;6.05;;
71821;SDS011;64096;52.548;13.406;2023-11-22T11:22:10;8.43;;;5.40;;
71821;SDS011;64096;52.548;13.406;2023-11-22T11:24:40;8.93;;;5.38;;
71821;SDS011;64096;52.548;13.406;2023-11-22T11:27:09;7.13;;;4.70;;
71821;SDS011;64096;52.548;13.406;2023-11-22T11:29:36;7.95;;;5.05;;
71821;SDS011;64096;52.548;13.406;2023-11-22T11:32:51;9.30;;;6.05;;
71821;SDS011;64096;52.548;13.406;2023-11-22T11:34:52;9.68;;;5.95;;
71821;SDS011;64096;52.548;13.406;2023-11-22T11:37:19;7.80;;;5.07;;
71821;SDS011;64096;52.548;13.406;2023-11-22T11:39:45;7.95;;;4.45;;
71821;SDS011;64096;52.548;13.406;2023-11-22T11:42:11;7.07;;;5.05;;
71821;SDS011;64096;52.548;13.406;2023-11-22T11:44:50;7.55;;;5.35;;
71821;SDS011;64096;52.548;13.406;2023-11-22T11:47:17;8.20;;;4.82;;
71821;SDS011;64096;52.548;13.406;2023-11-22T11:49:43;8.45;;;5.70;;
71821;SDS011;64096;52.548;13.406;2023-11-22T11:52:10;7.68;;;4.97;;
71821;SDS011;64096;52.548;13.406;2023-11-22T11:54:36;7.97;;;5.38;;
71821;SDS011;64096;52.548;13.406;2023-11-22T11:57:04;15.88;;;10.25;;
71821;SDS011;64096;52.548;13.406;2023-11-22T11:59:31;9.90;;;6.35;;
71821;SDS011;64096;52.548;13.406;2023-11-22T12:01:59;9.68;;;5.70;;
71821;SDS011;64096;52.548;13.406;2023-11-22T12:04:25;8.10;;;5.43;;
71821;SDS011;64096;52.548;13.406;2023-11-22T12:06:51;7.55;;;5.18;;
71821;SDS011;64096;52.548;13.406;2023-11-22T12:09:24;8.15;;;5.32;;
71821;SDS011;64096;52.548;13.406;2023-11-22T12:11:50;8.75;;;5.75;;
71821;SDS011;64096;52.548;13.406;2023-11-22T12:14:18;7.97;;;5.03;;
71821;SDS011;64096;52.548;13.406;2023-11-22T12:16:45;7.85;;;5.32;;
71821;SDS011;64096;52.548;13.406;2023-11-22T12:19:20;8.38;;;5.10;;
71821;SDS011;64096;52.548;13.406;2023-11-22T12:21:47;10.38;;;6.82;;
71821;SDS011;64096;52.548;13.406;2023-11-22T12:24:14;8.10;;;5.63;;
71821;SDS011;64096;52.548;13.406;2023-11-22T12:26:46;8.38;;;5.75;;
71821;SDS011;64096;52.548;13.406;2023-11-22T12:29:16;7.47;;;4.78;;
71821;SDS011;64096;52.548;13.406;2023-11-22T12:31:46;9.95;;;5.90;;
71821;SDS011;64096;52.548;13.406;2023-11-22T12:34:15;8.00;;;4.78;;
71821;SDS011;64096;52.548;13.406;2023-11-22T12:36:41;7.03;;;4.25;;
71821;SDS011;64096;52.548;13.406;2023-11-22T12:39:08;7.47;;;4.90;;
71821;SDS011;64096;52.548;13.406;2023-11-22T12:41:51;6.97;;;4.72;;
71821;SDS011;64096;52.548;13.406;2023-11-22T12:44:17;8.82;;;5.40;;
71821;SDS011;64096;52.548;13.406;2023-11-22T12:46:51;6.95;;;4.45;;
71821;SDS011;64096;52.548;13.406;2023-11-22T12:49:24;8.00;;;5.05;;
71821;SDS011;64096;52.548;13.406;2023-11-22T12:51:51;7.35;;;4.78;;
71821;SDS011;64096;52.548;13.406;2023-11-22T12:54:17;7.63;;;4.40;;
71821;SDS011;64096;52.548;13.406;2023-11-22T12:56:55;8.18;;;4.93;;
71821;SDS011;64096;52.548;13.406;2023-11-22T12:59:24;7.85;;;5.00;;
71821;SDS011;64096;52.548;13.406;2023-11-22T13:01:53;6.90;;;4.72;;
71821;SDS011;64096;52.548;13.406;2023-11-22T13:04:19;6.68;;;4.53;;
71821;SDS011;64096;52.548;13.406;2023-11-22T13:06:46;7.05;;;4.50;;
71821;SDS011;64096;52.548;13.406;2023-11-22T13:09:12;7.38;;;4.65;;
71821;SDS011;64096;52.548;13.406;2023-11-22T13:11:41;7.47;;;4.28;;
71821;SDS011;64096;52.548;13.406;2023-11-22T13:14:11;7.05;;;4.40;;
71821;SDS011;64096;52.548;13.406;2023-11-22T13:16:41;6.15;;;3.92;;
71821;SDS011;64096;52.548;13.406;2023-11-22T13:19:08;6.38;;;4.20;;
71821;SDS011;64096;52.548;13.406;2023-11-22T13:21:37;6.30;;;3.25;;
71821;SDS011;64096;52.548;13.406;2023-11-22T13:24:03;5.95;;;3.55;;
71821;SDS011;64096;52.548;13.406;2023-11-22T13:26:31;5.72;;;3.38;;
71821;SDS011;64096;52.548;13.406;2023-11-22T13:29:00;5.60;;;3.00;;
71821;SDS011;64096;52.548;13.406;2023-11-22T13:31:26;4.70;;;3.08;;
71821;SDS011;64096;52.548;13.406;2023-11-22T13:33:52;6.32;;;3.72;;
71821;SDS011;64096;52.548;13.406;2023-11-22T13:36:18;5.78;;;3.28;;
71821;SDS011;64096;52.548;13.406;2023-11-22T13:38:46;6.20;;;3.78;;
71821;SDS011;64096;52.548;13.406;2023-11-22T13:41:12;5.53;;;3.22;;
71821;SDS011;64096;52.548;13.406;2023-11-22T13:43:38;4.85;;;3.03;;
71821;SDS011;64096;52.548;13.406;2023-11-22T13:46:04;5.63;;;3.67;;
71821;SDS011;64096;52.548;13.406;2023-11-22T13:48:31;12.35;;;8.23;;
71821;SDS011;64096;52.548;13.406;2023-11-22T13:50:57;7.60;;;4.78;;
71821;SDS011;64096;52.548;13.406;2023-11-22T13:53:25;21.02;;;13.85;;
71821;SDS011;64096;52.548;13.406;2023-11-22T13:55:54;19.92;;;13.73;;
71821;SDS011;64096;52.548;13.406;2023-11-22T13:58:20;13.50;;;9.85;;
